createdAt,value
2023-03-25T00:01:08.468Z,52.25
2023-03-25T00:03:33.304Z,52.28
2023-03-25T00:05:59.653Z,52.39
2023-03-25T00:08:27.759Z,52.29
2023-03-25T00:10:58.583Z,52.13
2023-03-25T00:13:25.352Z,52.18
2023-03-25T00:15:55.426Z,52.20
2023-03-25T00:18:22.551Z,52.21
2023-03-25T00:22:10.345Z,52.60
2023-03-25T00:24:36.656Z,52.74
2023-03-25T00:27:03.847Z,52.66
2023-03-25T00:29:29.780Z,52.59
2023-03-25T00:31:56.255Z,52.30
2023-03-25T00:34:22.483Z,52.41
2023-03-25T00:36:47.710Z,52.57
2023-03-25T00:39:19.038Z,52.66
2023-03-25T00:41:54.814Z,52.63
2023-03-25T00:44:22.883Z,53.09
2023-03-25T00:46:48.876Z,53.12
2023-03-25T00:49:14.179Z,52.99
2023-03-25T00:51:52.208Z,52.99
2023-03-25T00:54:10.568Z,52.87
2023-03-25T00:56:37.814Z,52.61
2023-03-25T00:59:02.131Z,52.56
2023-03-25T01:01:31.334Z,52.68
2023-03-25T01:03:57.325Z,52.78
2023-03-25T01:06:29.765Z,52.82
2023-03-25T01:08:59.238Z,52.68
2023-03-25T01:11:29.908Z,52.34
2023-03-25T01:13:56.461Z,52.52
2023-03-25T01:16:22.369Z,52.28
2023-03-25T01:18:48.195Z,51.94
2023-03-25T01:21:13.561Z,51.86
2023-03-25T01:23:39.388Z,51.92
2023-03-25T01:26:25.150Z,51.90
2023-03-25T01:28:49.736Z,51.96
2023-03-25T01:31:15.842Z,52.34
2023-03-25T01:32:25.406Z,52.62
2023-03-25T01:34:49.390Z,52.70
2023-03-25T01:37:16.425Z,52.91
2023-03-25T01:39:42.312Z,53.18
2023-03-25T01:42:13.577Z,53.23
2023-03-25T01:44:48.015Z,52.53
2023-03-25T01:47:12.239Z,52.36
2023-03-25T01:49:46.993Z,52.10
2023-03-25T01:52:21.059Z,51.62
2023-03-25T01:54:51.626Z,51.59
2023-03-25T01:57:22.919Z,51.51
2023-03-25T01:59:52.423Z,51.33
2023-03-25T02:02:19.910Z,51.56
2023-03-25T02:04:59.552Z,51.52
2023-03-25T02:07:33.088Z,51.65
2023-03-25T02:10:04.359Z,51.68
2023-03-25T02:12:32.620Z,51.32
2023-03-25T02:13:42.674Z,51.35
2023-03-25T02:17:51.191Z,51.08
2023-03-25T02:21:02.674Z,51.41
2023-03-25T02:23:41.698Z,51.20
2023-03-25T02:26:59.348Z,51.15
2023-03-25T02:30:02.503Z,51.15
2023-03-25T02:34:49.352Z,51.38
2023-03-25T02:38:14.142Z,51.05
2023-03-25T02:42:32.908Z,50.25
2023-03-25T02:45:22.485Z,50.14
2023-03-25T02:49:17.799Z,50.00
2023-03-25T02:52:16.336Z,50.43
2023-03-25T02:54:47.393Z,50.19
2023-03-25T02:57:19.453Z,50.33
2023-03-25T02:59:49.036Z,50.42
2023-03-25T03:02:16.236Z,50.53
2023-03-25T03:06:11.346Z,49.69
2023-03-25T03:08:52.164Z,49.76
2023-03-25T03:11:47.599Z,49.72
2023-03-25T03:14:21.312Z,49.84
2023-03-25T03:17:32.362Z,49.67
2023-03-25T03:20:51.997Z,49.95
2023-03-25T03:23:38.611Z,49.79
2023-03-25T03:24:52.905Z,49.71
2023-03-25T03:27:36.566Z,49.64
2023-03-25T03:28:49.342Z,49.40
2023-03-25T03:32:54.198Z,49.58
2023-03-25T03:35:40.943Z,49.66
2023-03-25T03:36:53.515Z,49.79
2023-03-25T03:39:38.066Z,49.70
2023-03-25T03:42:18.968Z,49.92
2023-03-25T03:45:04.531Z,49.97
2023-03-25T03:47:37.559Z,50.26
2023-03-25T03:50:09.916Z,50.02
2023-03-25T03:52:42.425Z,50.66
2023-03-25T03:55:21.605Z,50.85
2023-03-25T03:59:23.064Z,50.79
2023-03-25T04:01:56.094Z,50.95
2023-03-25T04:04:29.256Z,51.27
2023-03-25T04:05:39.238Z,51.23
2023-03-25T04:08:18.682Z,51.42
2023-03-25T04:11:14.011Z,51.35
2023-03-25T04:13:58.462Z,51.72
2023-03-25T04:15:09.613Z,51.86
2023-03-25T04:17:35.084Z,51.91
2023-03-25T04:20:05.507Z,51.85
2023-03-25T04:22:30.741Z,52.11
2023-03-25T04:23:42.726Z,52.37
2023-03-25T04:26:33.396Z,52.41
2023-03-25T04:29:02.450Z,52.78
2023-03-25T04:31:33.595Z,52.82
2023-03-25T04:34:00.371Z,52.61
2023-03-25T04:35:09.982Z,52.65
2023-03-25T04:37:36.522Z,52.56
2023-03-25T04:40:02.016Z,52.77
2023-03-25T04:42:33.529Z,52.73
2023-03-25T04:45:00.372Z,52.64
2023-03-25T04:47:28.993Z,52.79
2023-03-25T04:49:57.365Z,52.80
2023-03-25T04:52:25.915Z,52.67
2023-03-25T04:54:53.374Z,52.94
2023-03-25T04:57:19.759Z,53.29
2023-03-25T04:59:45.545Z,53.51
2023-03-25T05:02:13.013Z,53.38
2023-03-25T05:04:47.626Z,52.84
2023-03-25T05:07:13.339Z,52.97
2023-03-25T05:08:22.843Z,53.23
2023-03-25T05:10:47.636Z,53.37
2023-03-25T05:13:13.066Z,52.80
2023-03-25T05:15:39.149Z,53.40
2023-03-25T05:18:13.097Z,53.29
2023-03-25T05:20:39.514Z,53.02
2023-03-25T05:23:05.447Z,53.04
2023-03-25T05:25:32.255Z,53.25
2023-03-25T05:26:42.513Z,53.61
2023-03-25T05:29:10.637Z,54.08
2023-03-25T05:31:36.927Z,54.00
2023-03-25T05:34:09.253Z,53.66
2023-03-25T05:36:33.873Z,54.17
2023-03-25T05:37:44.003Z,54.02
2023-03-25T05:38:54.461Z,53.86
2023-03-25T05:41:23.402Z,53.94
2023-03-25T05:43:51.555Z,53.89
2023-03-25T05:46:19.606Z,53.97
2023-03-25T05:49:06.500Z,54.07
2023-03-25T05:51:38.851Z,54.22
2023-03-25T05:54:10.431Z,54.46
2023-03-25T05:56:37.889Z,54.96
2023-03-25T05:59:03.724Z,54.92
2023-03-25T06:01:34.379Z,54.62
2023-03-25T06:04:01.554Z,54.90
2023-03-25T06:06:33.290Z,54.93
2023-03-25T06:07:54.826Z,55.21
2023-03-25T06:10:19.218Z,55.51
2023-03-25T06:11:27.788Z,55.70
2023-03-25T06:13:54.507Z,55.72
2023-03-25T06:16:21.828Z,56.52
2023-03-25T06:18:51.011Z,56.43
2023-03-25T06:21:22.265Z,56.33
2023-03-25T06:23:49.902Z,56.22
2023-03-25T06:25:01.249Z,56.37
2023-03-25T06:27:30.696Z,56.41
2023-03-25T06:28:40.209Z,56.45
2023-03-25T06:31:06.923Z,56.27
2023-03-25T06:32:16.229Z,56.33
2023-03-25T06:34:42.941Z,56.59
2023-03-25T06:37:09.483Z,56.75
2023-03-25T06:39:35.993Z,56.82
2023-03-25T06:42:04.336Z,57.31
2023-03-25T06:43:58.045Z,57.11
2023-03-25T06:47:15.822Z,57.16
2023-03-25T06:48:27.170Z,56.99
2023-03-25T06:50:51.269Z,56.91
2023-03-25T06:52:00.893Z,56.98
2023-03-25T06:53:12.048Z,57.00
2023-03-25T06:55:58.427Z,56.89
2023-03-25T06:57:07.422Z,56.67
2023-03-25T06:59:34.012Z,56.60
2023-03-25T07:02:00.177Z,56.76
2023-03-25T07:04:26.640Z,56.71
2023-03-25T07:06:51.546Z,56.46
2023-03-25T07:09:16.871Z,56.33
2023-03-25T07:11:43.911Z,56.28
2023-03-25T07:14:08.907Z,55.84
2023-03-25T07:16:34.051Z,55.54
2023-03-25T07:18:58.987Z,55.69
2023-03-25T07:20:11.468Z,55.79
2023-03-25T07:22:41.370Z,55.65
2023-03-25T07:23:51.944Z,55.94
2023-03-25T07:26:16.652Z,56.08
2023-03-25T07:28:41.837Z,56.25
2023-03-25T07:29:51.060Z,56.09
2023-03-25T07:32:18.416Z,56.18
2023-03-25T07:34:45.418Z,56.41
2023-03-25T07:35:55.527Z,57.02
2023-03-25T07:38:24.361Z,56.60
2023-03-25T07:40:50.184Z,56.77
2023-03-25T07:43:15.303Z,56.61
2023-03-25T07:45:43.418Z,56.48
2023-03-25T07:48:09.288Z,56.60
2023-03-25T07:50:33.337Z,57.03
2023-03-25T07:52:59.255Z,57.01
2023-03-25T07:55:23.412Z,56.67
2023-03-25T07:57:48.467Z,56.29
2023-03-25T08:00:15.186Z,55.98
2023-03-25T08:02:41.261Z,54.61
2023-03-25T08:03:50.434Z,54.64
2023-03-25T08:05:02.124Z,54.86
2023-03-25T08:07:29.047Z,54.49
2023-03-25T08:09:53.358Z,53.83
2023-03-25T08:12:17.950Z,53.36
2023-03-25T08:14:42.203Z,52.80
2023-03-25T08:17:07.124Z,52.28
2023-03-25T08:18:16.786Z,52.70
2023-03-25T08:20:41.486Z,52.35
2023-03-25T08:23:07.576Z,52.29
2023-03-25T08:24:18.207Z,52.15
2023-03-25T08:26:44.801Z,51.82
2023-03-25T08:27:54.444Z,51.78
2023-03-25T08:30:19.998Z,51.82
2023-03-25T08:32:51.129Z,51.47
2023-03-25T08:36:39.134Z,51.77
2023-03-25T08:39:06.254Z,51.77
2023-03-25T08:41:37.998Z,52.15
2023-03-25T08:44:01.672Z,52.13
2023-03-25T08:46:28.596Z,51.55
2023-03-25T08:48:53.252Z,51.41
2023-03-25T08:51:18.812Z,51.58
2023-03-25T08:53:43.379Z,51.16
2023-03-25T08:56:11.338Z,51.41
2023-03-25T08:58:35.880Z,51.26
2023-03-25T09:01:00.788Z,51.24
2023-03-25T09:03:28.036Z,51.64
2023-03-25T09:05:54.144Z,51.49
2023-03-25T09:08:18.442Z,51.38
2023-03-25T09:09:29.887Z,51.52
2023-03-25T09:11:57.057Z,51.46
2023-03-25T09:13:06.028Z,51.18
2023-03-25T09:15:31.733Z,51.37
2023-03-25T09:16:42.378Z,51.56
2023-03-25T09:17:54.247Z,51.62
2023-03-25T09:19:03.684Z,51.62
2023-03-25T09:21:29.772Z,51.71
2023-03-25T09:22:40.426Z,51.62
2023-03-25T09:23:49.126Z,51.48
2023-03-25T09:24:58.245Z,51.19
2023-03-25T09:27:33.329Z,50.89
2023-03-25T09:30:07.417Z,50.76
2023-03-25T09:32:32.188Z,50.27
2023-03-25T09:33:42.645Z,50.42
2023-03-25T09:36:07.883Z,50.59
2023-03-25T09:38:32.351Z,50.41
2023-03-25T09:40:57.553Z,50.70
2023-03-25T09:43:53.971Z,50.81
2023-03-25T09:46:41.183Z,50.43
2023-03-25T09:49:25.468Z,49.79
2023-03-25T09:51:54.915Z,49.62
2023-03-25T09:54:35.231Z,49.32
2023-03-25T09:57:06.386Z,49.20
2023-03-25T09:59:49.883Z,49.08
2023-03-25T10:01:21.150Z,48.99
2023-03-25T10:04:10.046Z,49.21
2023-03-25T10:07:28.945Z,49.38
2023-03-25T10:10:35.112Z,49.36
2023-03-25T10:13:35.364Z,49.13
2023-03-25T10:16:25.572Z,49.14
2023-03-25T10:19:33.184Z,49.35
2023-03-25T10:20:55.795Z,49.30
2023-03-25T10:23:45.934Z,49.15
2023-03-25T10:26:27.748Z,49.25
2023-03-25T10:29:05.813Z,49.45
2023-03-25T10:31:52.917Z,49.49
2023-03-25T10:35:43.620Z,48.98
2023-03-25T10:38:24.156Z,48.75
2023-03-25T10:41:24.572Z,48.85
2023-03-25T10:44:13.336Z,49.29
2023-03-25T10:45:25.015Z,49.14
2023-03-25T10:47:58.582Z,49.37
2023-03-25T10:49:11.256Z,49.45
2023-03-25T10:51:37.106Z,49.70
2023-03-25T10:54:04.363Z,49.23
2023-03-25T10:56:38.835Z,48.74
2023-03-25T11:00:40.807Z,48.27
2023-03-25T11:03:12.089Z,48.32
2023-03-25T11:05:41.731Z,48.15
2023-03-25T11:06:59.495Z,48.46
2023-03-25T11:09:29.826Z,47.52
2023-03-25T11:11:55.757Z,47.21
2023-03-25T11:14:24.484Z,47.45
2023-03-25T11:16:59.842Z,46.96
2023-03-25T11:20:00.650Z,46.74
2023-03-25T11:21:13.120Z,46.16
2023-03-25T11:23:46.382Z,45.99
2023-03-25T11:25:02.147Z,45.92
2023-03-25T11:28:06.658Z,46.00
2023-03-25T11:30:41.934Z,46.36
2023-03-25T11:33:17.601Z,46.74
2023-03-25T11:34:26.574Z,46.71
2023-03-25T11:37:01.342Z,46.68
2023-03-25T11:39:40.782Z,46.34
2023-03-25T11:42:23.145Z,46.26
2023-03-25T11:44:56.273Z,46.30
2023-03-25T11:47:37.996Z,46.40
2023-03-25T11:50:07.124Z,46.63
2023-03-25T11:52:50.889Z,46.88
2023-03-25T11:56:57.033Z,46.55
2023-03-25T11:59:41.806Z,46.88
2023-03-25T12:03:35.311Z,46.64
2023-03-25T12:06:22.557Z,46.55
2023-03-25T12:07:43.803Z,46.62
2023-03-25T12:10:23.092Z,46.56
2023-03-25T12:14:36.917Z,46.29
2023-03-25T12:17:24.995Z,46.15
2023-03-25T12:20:52.232Z,46.20
2023-03-25T12:23:42.123Z,45.75
2023-03-25T12:27:53.437Z,45.68
2023-03-25T12:32:22.277Z,45.59
2023-03-25T12:35:18.540Z,45.58
2023-03-25T12:36:49.677Z,45.84
2023-03-25T12:39:52.218Z,45.76
2023-03-25T12:43:06.873Z,45.97
2023-03-25T12:46:02.834Z,45.75
2023-03-25T12:47:21.012Z,45.83
2023-03-25T12:50:22.516Z,46.19
2023-03-25T12:53:24.145Z,46.25
2023-03-25T12:57:42.986Z,46.35
2023-03-25T13:02:09.580Z,46.37
2023-03-25T13:03:31.499Z,46.37
2023-03-25T13:06:34.373Z,46.21
2023-03-25T13:09:12.359Z,46.71
2023-03-25T13:11:59.581Z,47.09
2023-03-25T13:14:42.047Z,46.96
2023-03-25T13:17:17.025Z,46.72
2023-03-25T13:19:46.318Z,46.65
2023-03-25T13:21:13.769Z,46.79
2023-03-25T13:23:45.145Z,46.66
2023-03-25T13:24:58.551Z,46.78
2023-03-25T13:26:21.698Z,46.93
2023-03-25T13:30:23.857Z,47.23
2023-03-25T13:31:36.857Z,47.17
2023-03-25T13:34:18.421Z,47.17
2023-03-25T13:37:13.540Z,47.18
2023-03-25T13:40:18.487Z,46.74
2023-03-25T13:43:14.789Z,46.73
2023-03-25T13:45:52.313Z,46.52
2023-03-25T13:48:25.680Z,46.31
2023-03-25T13:50:58.431Z,46.56
2023-03-25T13:52:08.222Z,46.37
2023-03-25T13:54:53.012Z,46.43
2023-03-25T13:57:39.490Z,46.30
2023-03-25T14:00:30.577Z,45.91
2023-03-25T14:01:46.068Z,45.94
2023-03-25T14:04:44.035Z,45.88
2023-03-25T14:07:52.905Z,46.61
2023-03-25T14:11:00.461Z,46.45
2023-03-25T14:13:46.426Z,45.88
2023-03-25T14:16:21.509Z,46.04
2023-03-25T14:20:11.628Z,46.09
2023-03-25T14:21:24.354Z,46.05
2023-03-25T14:22:39.707Z,45.99
2023-03-25T14:25:37.315Z,45.94
2023-03-25T14:28:08.929Z,45.70
2023-03-25T14:30:37.748Z,45.64
2023-03-25T14:33:18.550Z,45.81
2023-03-25T14:35:47.886Z,45.54
2023-03-25T14:40:28.612Z,45.43
2023-03-25T14:43:29.108Z,45.43
2023-03-25T14:47:27.450Z,45.61
2023-03-25T14:50:23.528Z,45.76
2023-03-25T14:54:23.895Z,45.89
2023-03-25T14:57:18.818Z,45.93
2023-03-25T15:02:31.931Z,46.07
2023-03-25T15:05:19.793Z,45.89
2023-03-25T15:08:09.334Z,46.07
2023-03-25T15:10:40.510Z,46.22
2023-03-25T15:13:31.791Z,46.13
2023-03-25T15:17:45.926Z,46.79
2023-03-25T15:20:24.722Z,47.02
2023-03-25T15:23:21.213Z,47.22
2023-03-25T15:24:34.235Z,47.22
2023-03-25T15:27:22.196Z,47.30
2023-03-25T15:30:27.927Z,47.15
2023-03-25T15:33:19.206Z,47.11
2023-03-25T15:36:28.733Z,47.14
2023-03-25T15:39:24.779Z,46.87
2023-03-25T15:42:37.942Z,46.65
2023-03-25T15:45:24.914Z,46.60
2023-03-25T15:48:23.603Z,46.58
2023-03-25T15:49:41.756Z,46.48
2023-03-25T15:50:54.374Z,46.50
2023-03-25T15:53:56.195Z,46.59
2023-03-25T15:56:28.881Z,46.64
2023-03-25T15:59:10.420Z,47.23
2023-03-25T16:01:49.501Z,47.72
2023-03-25T16:04:33.775Z,47.79
2023-03-25T16:07:05.573Z,47.89
2023-03-25T16:09:49.781Z,48.06
2023-03-25T16:12:36.022Z,48.17
2023-03-25T16:15:05.495Z,48.12
2023-03-25T16:17:34.775Z,48.25
2023-03-25T16:20:04.878Z,48.05
2023-03-25T16:22:34.162Z,48.32
2023-03-25T16:25:06.045Z,48.55
2023-03-25T16:27:37.537Z,48.66
2023-03-25T16:30:02.111Z,48.86
2023-03-25T16:32:49.852Z,48.99
2023-03-25T16:34:00.503Z,49.02
2023-03-25T16:35:12.284Z,49.12
2023-03-25T16:36:23.137Z,49.29
2023-03-25T16:38:49.370Z,49.32
2023-03-25T16:41:16.305Z,49.15
2023-03-25T16:42:30.605Z,49.32
2023-03-25T16:44:57.048Z,49.41
2023-03-25T16:46:08.445Z,49.50
2023-03-25T16:48:39.536Z,49.67
2023-03-25T16:49:53.244Z,49.61
2023-03-25T16:52:35.044Z,50.06
2023-03-25T16:55:04.888Z,49.98
2023-03-25T16:56:17.969Z,49.75
2023-03-25T17:00:20.458Z,49.65
2023-03-25T17:03:00.627Z,49.73
2023-03-25T17:05:29.699Z,49.95
2023-03-25T17:08:08.073Z,50.11
2023-03-25T17:12:14.179Z,50.22
2023-03-25T17:15:00.199Z,50.21
2023-03-25T17:17:49.169Z,50.55
2023-03-25T17:19:00.519Z,50.43
2023-03-25T17:20:18.219Z,50.23
2023-03-25T17:24:24.108Z,50.58
2023-03-25T17:27:38.293Z,50.77
2023-03-25T17:29:01.699Z,50.71
2023-03-25T17:31:38.461Z,51.04
2023-03-25T17:34:12.542Z,51.41
2023-03-25T17:36:46.578Z,51.33
2023-03-25T17:39:26.605Z,51.38
2023-03-25T17:41:59.857Z,51.39
2023-03-25T17:44:36.762Z,51.03
2023-03-25T17:47:09.761Z,51.13
2023-03-25T17:48:19.395Z,50.97
2023-03-25T17:50:52.105Z,50.91
2023-03-25T17:53:18.516Z,50.94
2023-03-25T17:55:44.336Z,51.30
2023-03-25T17:58:09.874Z,51.20
2023-03-25T18:00:37.907Z,50.58
2023-03-25T18:01:49.415Z,50.57
2023-03-25T18:04:21.330Z,51.08
2023-03-25T18:06:45.627Z,51.08
2023-03-25T18:09:21.226Z,51.20
2023-03-25T18:11:49.113Z,51.39
2023-03-25T18:14:13.263Z,50.98
2023-03-25T18:16:37.531Z,51.22
2023-03-25T18:19:01.773Z,51.94
2023-03-25T18:21:31.623Z,52.23
2023-03-25T18:23:56.497Z,52.46
2023-03-25T18:26:21.245Z,52.19
2023-03-25T18:28:48.969Z,52.01
2023-03-25T18:31:16.717Z,51.63
2023-03-25T18:32:25.410Z,51.87
2023-03-25T18:34:50.099Z,52.65
2023-03-25T18:37:14.821Z,52.84
2023-03-25T18:39:41.367Z,53.09
2023-03-25T18:42:06.569Z,52.82
2023-03-25T18:44:31.726Z,52.50
2023-03-25T18:46:57.046Z,52.55
2023-03-25T18:49:21.971Z,52.98
2023-03-25T18:51:52.408Z,53.41
2023-03-25T18:54:17.080Z,53.21
2023-03-25T18:56:44.121Z,53.10
2023-03-25T18:59:13.706Z,53.00
2023-03-25T19:01:46.753Z,51.99
2023-03-25T19:04:11.160Z,51.59
2023-03-25T19:06:38.885Z,51.55
2023-03-25T19:09:06.588Z,51.63
2023-03-25T19:11:36.880Z,51.88
2023-03-25T19:14:01.284Z,51.54
2023-03-25T19:16:27.070Z,51.71
2023-03-25T19:18:51.182Z,51.70
2023-03-25T19:21:18.766Z,51.76
2023-03-25T19:23:44.533Z,52.06
2023-03-25T19:24:54.030Z,52.17
2023-03-25T19:26:04.107Z,52.49
2023-03-25T19:28:29.047Z,53.03
2023-03-25T19:30:55.212Z,53.30
2023-03-25T19:33:20.801Z,54.50
2023-03-25T19:35:55.035Z,54.60
2023-03-25T19:38:39.586Z,54.71
2023-03-25T19:41:11.463Z,54.98
2023-03-25T19:43:37.223Z,54.94
2023-03-25T19:46:04.164Z,55.41
2023-03-25T19:47:13.171Z,55.38
2023-03-25T19:49:40.273Z,55.45
2023-03-25T19:52:05.169Z,55.68
2023-03-25T19:54:32.082Z,55.85
2023-03-25T19:55:45.391Z,55.89
2023-03-25T19:58:12.406Z,57.07
2023-03-25T20:00:38.135Z,56.88
2023-03-25T20:03:04.246Z,56.60
2023-03-25T20:05:30.613Z,56.73
2023-03-25T20:06:40.939Z,56.94
2023-03-25T20:09:11.090Z,57.24
2023-03-25T20:11:37.208Z,57.54
2023-03-25T20:12:46.415Z,57.46
2023-03-25T20:13:55.781Z,57.82
2023-03-25T20:16:22.100Z,58.08
2023-03-25T20:17:30.945Z,58.78
2023-03-25T20:18:41.993Z,59.19
2023-03-25T20:19:51.447Z,59.15
2023-03-25T20:21:01.041Z,59.10
2023-03-25T20:23:24.822Z,59.58
2023-03-25T20:26:09.170Z,59.79
2023-03-25T20:28:35.518Z,60.22
2023-03-25T20:30:59.529Z,59.94
2023-03-25T20:32:09.305Z,61.03
2023-03-25T20:34:35.217Z,60.76
2023-03-25T20:37:04.020Z,60.29
2023-03-25T20:38:13.752Z,60.45
2023-03-25T20:39:26.056Z,60.73
2023-03-25T20:41:52.673Z,60.64
2023-03-25T20:44:17.281Z,60.87
2023-03-25T20:46:44.729Z,60.84
2023-03-25T20:49:10.693Z,60.93
2023-03-25T20:50:26.675Z,61.05
2023-03-25T20:52:56.012Z,61.35
2023-03-25T20:55:39.837Z,61.73
2023-03-25T20:58:08.723Z,62.40
2023-03-25T20:59:20.119Z,62.32
2023-03-25T21:01:48.567Z,62.95
2023-03-25T21:04:14.056Z,63.64
2023-03-25T21:05:23.754Z,63.61
2023-03-25T21:07:49.974Z,63.49
2023-03-25T21:10:14.150Z,63.69
2023-03-25T21:11:23.363Z,63.84
2023-03-25T21:12:43.134Z,64.07
2023-03-25T21:14:59.436Z,64.84
2023-03-25T21:16:09.034Z,65.05
2023-03-25T21:18:33.422Z,65.45
2023-03-25T21:19:42.583Z,65.52
2023-03-25T21:22:13.200Z,66.16
2023-03-25T21:23:32.531Z,66.06
2023-03-25T21:26:00.026Z,66.55
2023-03-25T21:28:28.599Z,67.03
2023-03-25T21:29:38.217Z,67.02
2023-03-25T21:32:04.056Z,67.32
2023-03-25T21:34:31.341Z,67.56
2023-03-25T21:36:56.184Z,68.42
2023-03-25T21:39:23.794Z,68.79
2023-03-25T21:41:49.744Z,69.06
2023-03-25T21:42:58.851Z,69.04
2023-03-25T21:44:09.134Z,68.81
2023-03-25T21:46:36.549Z,69.18
2023-03-25T21:49:08.355Z,69.65
2023-03-25T21:50:18.611Z,69.70
2023-03-25T21:51:30.035Z,70.08
2023-03-25T21:53:59.316Z,69.99
2023-03-25T21:56:34.106Z,70.04
2023-03-25T21:59:04.053Z,69.42
2023-03-25T22:00:16.761Z,69.29
2023-03-25T22:01:30.190Z,69.25
2023-03-25T22:04:01.724Z,68.79
2023-03-25T22:06:33.670Z,68.87
2023-03-25T22:08:59.202Z,68.94
2023-03-25T22:11:31.032Z,69.75
2023-03-25T22:12:42.095Z,69.99
2023-03-25T22:15:10.377Z,70.13
2023-03-25T22:16:21.365Z,70.00
2023-03-25T22:17:31.456Z,70.14
2023-03-25T22:19:57.593Z,70.27
2023-03-25T22:21:16.318Z,70.13
2023-03-25T22:23:41.687Z,70.16
2023-03-25T22:26:07.696Z,69.73
2023-03-25T22:28:39.484Z,68.96
2023-03-25T22:32:28.041Z,68.92
2023-03-25T22:33:38.758Z,69.10
2023-03-25T22:36:13.455Z,69.16
2023-03-25T22:38:50.325Z,69.98
2023-03-25T22:41:16.507Z,69.87
2023-03-25T22:43:43.586Z,70.03
2023-03-25T22:46:09.995Z,71.35
2023-03-25T22:48:40.241Z,72.38
2023-03-25T22:49:49.877Z,72.13
2023-03-25T22:51:00.545Z,71.98
2023-03-25T22:53:26.011Z,71.96
2023-03-25T22:54:35.177Z,71.13
2023-03-25T22:55:52.075Z,71.16
2023-03-25T22:58:16.749Z,69.96
2023-03-25T22:59:26.178Z,69.57
2023-03-25T23:01:51.133Z,69.66
2023-03-25T23:04:16.697Z,69.36
2023-03-25T23:06:45.261Z,70.27
2023-03-25T23:09:11.694Z,69.89
2023-03-25T23:10:21.444Z,69.75
2023-03-25T23:12:46.757Z,69.67
2023-03-25T23:15:16.256Z,69.70
2023-03-25T23:17:47.819Z,69.36
2023-03-25T23:20:13.638Z,69.62
2023-03-25T23:23:02.112Z,69.98
2023-03-25T23:24:11.414Z,70.24
2023-03-25T23:26:38.602Z,70.92
2023-03-25T23:27:50.332Z,70.92
2023-03-25T23:30:15.597Z,70.80
2023-03-25T23:31:27.402Z,70.48
2023-03-25T23:33:52.516Z,69.90
2023-03-25T23:35:02.617Z,69.67
2023-03-25T23:36:14.133Z,69.64
2023-03-25T23:37:23.226Z,69.54
2023-03-25T23:38:33.963Z,69.24
2023-03-25T23:41:12.125Z,69.53
2023-03-25T23:43:39.731Z,69.47
2023-03-25T23:44:49.069Z,69.40
2023-03-25T23:45:59.468Z,69.51
2023-03-25T23:47:09.688Z,70.16
2023-03-25T23:48:19.148Z,70.19
2023-03-25T23:50:50.893Z,70.94
2023-03-25T23:53:15.640Z,70.54
2023-03-25T23:55:46.451Z,70.17
2023-03-25T23:58:13.690Z,70.07
